createdAt,value
2023-02-11T00:02:00.278Z,15.00
2023-02-11T00:04:29.804Z,16.27
2023-02-11T00:06:57.943Z,15.07
2023-02-11T00:09:26.112Z,15.57
2023-02-11T00:11:54.184Z,16.13
2023-02-11T00:14:22.297Z,15.80
2023-02-11T00:16:50.450Z,14.87
2023-02-11T00:19:18.570Z,15.60
2023-02-11T00:21:48.059Z,14.73
2023-02-11T00:24:16.148Z,15.47
2023-02-11T00:26:44.906Z,14.50
2023-02-11T00:29:13.013Z,14.73
2023-02-11T00:31:42.085Z,14.87
2023-02-11T00:34:10.319Z,14.60
2023-02-11T00:36:39.951Z,15.33
2023-02-11T00:39:10.470Z,15.43
2023-02-11T00:41:38.653Z,15.40
2023-02-11T00:44:06.849Z,14.23
2023-02-11T00:46:35.092Z,14.50
2023-02-11T00:49:03.291Z,15.37
2023-02-11T00:51:32.190Z,15.17
2023-02-11T00:54:00.370Z,15.13
2023-02-11T00:56:29.848Z,16.37
2023-02-11T00:58:57.946Z,15.30
2023-02-11T01:01:26.315Z,14.73
2023-02-11T01:03:54.453Z,14.70
2023-02-11T01:06:24.846Z,14.97
2023-02-11T01:08:53.075Z,14.30
2023-02-11T01:11:21.761Z,15.97
2023-02-11T01:13:51.399Z,14.17
2023-02-11T01:16:20.591Z,14.20
2023-02-11T01:18:48.898Z,14.43
2023-02-11T01:21:19.099Z,14.87
2023-02-11T01:23:47.290Z,13.23
2023-02-11T01:26:15.462Z,14.33
2023-02-11T01:28:43.680Z,12.40
2023-02-11T01:31:13.304Z,14.27
2023-02-11T01:33:41.533Z,13.50
2023-02-11T01:36:11.799Z,13.97
2023-02-11T01:38:41.006Z,13.90
2023-02-11T01:41:11.303Z,14.27
2023-02-11T01:43:41.015Z,14.40
2023-02-11T01:46:21.768Z,13.70
2023-02-11T01:48:52.438Z,13.47
2023-02-11T01:51:24.587Z,13.70
2023-02-11T01:54:10.382Z,13.60
2023-02-11T01:56:58.427Z,13.93
2023-02-11T01:59:31.365Z,13.90
2023-02-11T02:02:03.543Z,13.60
2023-02-11T02:04:36.496Z,13.40
2023-02-11T02:07:07.601Z,14.30
2023-02-11T02:09:40.380Z,14.17
2023-02-11T02:12:08.459Z,13.83
2023-02-11T02:14:40.414Z,13.97
2023-02-11T02:17:11.615Z,14.50
2023-02-11T02:20:24.174Z,13.37
2023-02-11T02:23:20.802Z,13.67
2023-02-11T02:26:30.950Z,13.77
2023-02-11T02:29:25.526Z,12.17
2023-02-11T02:32:39.522Z,13.60
2023-02-11T02:35:16.847Z,14.40
2023-02-11T02:37:49.166Z,14.17
2023-02-11T02:40:21.144Z,14.07
2023-02-11T02:42:49.341Z,14.03
2023-02-11T02:45:17.597Z,14.20
2023-02-11T02:47:47.109Z,14.40
2023-02-11T02:50:15.513Z,15.20
2023-02-11T02:52:47.872Z,14.70
2023-02-11T02:55:36.227Z,14.20
2023-02-11T02:58:23.365Z,13.63
2023-02-11T03:00:55.617Z,14.70
2023-02-11T03:03:30.407Z,15.40
2023-02-11T03:06:01.589Z,15.00
2023-02-11T03:08:33.275Z,14.63
2023-02-11T03:11:01.918Z,15.47
2023-02-11T03:13:33.519Z,14.57
2023-02-11T03:16:04.311Z,15.00
2023-02-11T03:18:33.912Z,15.03
2023-02-11T03:21:02.046Z,15.40
2023-02-11T03:23:31.936Z,15.67
2023-02-11T03:26:03.833Z,14.93
2023-02-11T03:28:34.035Z,14.90
2023-02-11T03:31:10.878Z,15.93
2023-02-11T03:33:43.697Z,15.40
2023-02-11T03:36:15.148Z,15.67
2023-02-11T03:38:46.924Z,16.17
2023-02-11T03:41:15.092Z,14.90
2023-02-11T03:43:45.251Z,16.50
2023-02-11T03:46:13.518Z,16.07
2023-02-11T03:48:45.396Z,16.27
2023-02-11T03:51:13.968Z,15.63
2023-02-11T03:53:44.168Z,16.03
2023-02-11T03:56:14.761Z,15.70
2023-02-11T03:58:42.939Z,15.43
2023-02-11T04:01:11.228Z,15.70
2023-02-11T04:03:39.389Z,16.30
2023-02-11T04:06:09.365Z,15.90
2023-02-11T04:08:37.453Z,15.40
2023-02-11T04:11:05.633Z,16.50
2023-02-11T04:13:33.725Z,16.43
2023-02-11T04:16:01.928Z,17.37
2023-02-11T04:18:30.133Z,16.17
2023-02-11T04:20:58.208Z,15.80
2023-02-11T04:23:27.723Z,15.20
2023-02-11T04:25:55.814Z,15.57
2023-02-11T04:28:23.997Z,16.23
2023-02-11T04:30:52.336Z,16.30
2023-02-11T04:33:20.611Z,16.03
2023-02-11T04:35:49.207Z,15.50
2023-02-11T04:38:17.632Z,15.83
2023-02-11T04:40:47.086Z,16.00
2023-02-11T04:43:15.187Z,15.70
2023-02-11T04:45:43.328Z,15.50
2023-02-11T04:48:11.485Z,15.17
2023-02-11T04:50:39.600Z,15.37
2023-02-11T04:53:07.701Z,16.23
2023-02-11T04:55:35.950Z,17.00
2023-02-11T04:58:05.484Z,16.07
2023-02-11T05:00:33.632Z,16.87
2023-02-11T05:03:01.725Z,15.27
2023-02-11T05:05:29.922Z,16.47
2023-02-11T05:07:58.461Z,14.73
2023-02-11T05:10:26.639Z,18.73
2023-02-11T05:12:56.128Z,17.07
2023-02-11T05:15:25.691Z,16.77
2023-02-11T05:17:53.974Z,15.80
2023-02-11T05:20:22.324Z,16.13
2023-02-11T05:22:50.540Z,17.70
2023-02-11T05:25:20.323Z,16.97
2023-02-11T05:27:48.514Z,18.53
2023-02-11T05:30:16.692Z,17.37
2023-02-11T05:32:46.197Z,16.77
2023-02-11T05:35:14.292Z,17.67
2023-02-11T05:37:42.415Z,16.40
2023-02-11T05:40:11.563Z,17.30
2023-02-11T05:42:39.667Z,15.97
2023-02-11T05:45:09.354Z,16.57
2023-02-11T05:47:37.466Z,16.13
2023-02-11T05:50:07.770Z,16.10
2023-02-11T05:52:35.877Z,15.87
2023-02-11T05:55:04.587Z,15.73
2023-02-11T05:57:32.734Z,16.13
2023-02-11T06:00:00.878Z,14.50
2023-02-11T06:02:29.074Z,14.97
2023-02-11T06:04:57.253Z,16.30
2023-02-11T06:07:26.779Z,16.60
2023-02-11T06:09:56.190Z,16.23
2023-02-11T06:12:24.398Z,15.00
2023-02-11T06:14:52.588Z,16.83
2023-02-11T06:17:20.705Z,15.50
2023-02-11T06:19:48.820Z,14.77
2023-02-11T06:22:17.026Z,16.20
2023-02-11T06:25:00.782Z,15.60
2023-02-11T06:30:19.268Z,15.07
2023-02-11T06:32:57.773Z,15.27
2023-02-11T06:35:31.313Z,15.70
2023-02-11T06:38:27.882Z,15.60
2023-02-11T06:41:01.807Z,14.93
2023-02-11T06:43:37.935Z,14.87
2023-02-11T06:46:06.532Z,15.60
2023-02-11T06:48:34.969Z,15.50
2023-02-11T06:51:03.972Z,15.30
2023-02-11T06:53:32.190Z,15.40
2023-02-11T06:56:05.394Z,15.87
2023-02-11T06:58:33.707Z,16.87
2023-02-11T07:01:06.163Z,16.13
2023-02-11T07:03:36.127Z,16.13
2023-02-11T07:06:05.501Z,16.00
2023-02-11T07:08:34.333Z,16.00
2023-02-11T07:11:10.083Z,16.40
2023-02-11T07:13:38.383Z,16.60
2023-02-11T07:16:07.746Z,18.23
2023-02-11T07:18:35.927Z,17.57
2023-02-11T07:21:06.744Z,17.73
2023-02-11T07:23:35.096Z,16.67
2023-02-11T07:26:06.009Z,15.87
2023-02-11T07:28:35.121Z,15.57
2023-02-11T07:31:08.276Z,17.53
2023-02-11T07:33:36.789Z,16.43
2023-02-11T07:36:06.048Z,16.43
2023-02-11T07:38:34.439Z,15.33
2023-02-11T07:41:02.811Z,16.40
2023-02-11T07:43:32.417Z,16.57
2023-02-11T07:46:00.698Z,16.13
2023-02-11T07:48:28.920Z,16.37
2023-02-11T07:50:57.601Z,16.67
2023-02-11T07:53:25.718Z,15.33
2023-02-11T07:55:53.879Z,15.57
2023-02-11T07:58:22.006Z,16.47
2023-02-11T08:00:51.596Z,17.50
2023-02-11T08:03:19.751Z,15.17
2023-02-11T08:05:47.902Z,16.47
2023-02-11T08:08:16.148Z,16.10
2023-02-11T08:10:44.386Z,16.43
2023-02-11T08:13:12.523Z,17.23
2023-02-11T08:15:40.658Z,16.23
2023-02-11T08:18:10.168Z,15.53
2023-02-11T08:20:38.281Z,16.43
2023-02-11T08:23:07.433Z,16.77
2023-02-11T08:25:35.805Z,17.17
2023-02-11T08:28:03.997Z,17.13
2023-02-11T08:30:32.166Z,17.20
2023-02-11T08:33:00.432Z,16.23
2023-02-11T08:35:29.929Z,16.70
2023-02-11T08:37:58.398Z,17.23
2023-02-11T08:40:26.748Z,16.60
2023-02-11T08:42:54.877Z,17.40
2023-02-11T08:45:22.994Z,16.00
2023-02-11T08:47:51.564Z,16.30
2023-02-11T08:50:19.961Z,16.83
2023-02-11T08:52:49.593Z,16.73
2023-02-11T08:55:17.899Z,17.07
2023-02-11T08:57:46.180Z,16.40
2023-02-11T09:00:16.686Z,17.13
2023-02-11T09:02:44.825Z,16.07
2023-02-11T09:05:13.253Z,16.73
2023-02-11T09:07:41.604Z,16.23
2023-02-11T09:10:11.436Z,17.17
2023-02-11T09:12:39.663Z,16.40
2023-02-11T09:15:09.195Z,16.23
2023-02-11T09:17:37.380Z,16.07
2023-02-11T09:20:08.578Z,16.17
2023-02-11T09:22:37.925Z,17.07
2023-02-11T09:25:06.841Z,17.00
2023-02-11T09:27:36.338Z,17.00
2023-02-11T09:30:05.117Z,15.63
2023-02-11T09:32:33.278Z,16.23
2023-02-11T09:35:01.375Z,15.80
2023-02-11T09:37:29.531Z,16.63
2023-02-11T09:39:57.666Z,16.20
2023-02-11T09:42:39.960Z,17.07
2023-02-11T09:45:15.819Z,17.17
2023-02-11T09:47:49.032Z,16.67
2023-02-11T09:50:20.545Z,17.10
2023-02-11T09:52:52.677Z,16.97
2023-02-11T09:55:22.852Z,17.47
2023-02-11T09:57:52.551Z,17.67
2023-02-11T10:00:24.079Z,17.10
2023-02-11T10:03:39.954Z,18.13
2023-02-11T10:06:19.916Z,17.53
2023-02-11T10:08:56.015Z,18.77
2023-02-11T10:11:32.084Z,17.70
2023-02-11T10:14:12.360Z,18.53
2023-02-11T10:16:52.379Z,17.70
2023-02-11T10:19:40.047Z,18.03
2023-02-11T10:22:11.655Z,17.63
2023-02-11T10:24:39.787Z,19.33
2023-02-11T10:27:15.862Z,19.00
2023-02-11T10:29:48.874Z,21.23
2023-02-11T10:32:26.054Z,22.07
2023-02-11T10:34:54.245Z,20.93
2023-02-11T10:37:22.411Z,20.00
2023-02-11T10:39:50.572Z,21.50
2023-02-11T10:42:18.701Z,20.47
2023-02-11T10:44:57.928Z,27.77
2023-02-11T10:47:28.605Z,20.53
2023-02-11T10:50:03.211Z,18.53
2023-02-11T10:52:32.106Z,17.90
2023-02-11T10:55:03.448Z,22.13
2023-02-11T10:57:35.689Z,22.00
2023-02-11T11:00:22.615Z,18.93
2023-02-11T11:02:56.515Z,19.30
2023-02-11T11:05:31.520Z,18.97
2023-02-11T11:08:00.908Z,19.13
2023-02-11T11:10:43.389Z,19.17
2023-02-11T11:13:26.457Z,20.77
2023-02-11T11:16:27.171Z,20.40
2023-02-11T11:19:16.414Z,20.33
2023-02-11T11:21:45.859Z,19.30
2023-02-11T11:24:18.568Z,20.13
2023-02-11T11:26:47.886Z,18.97
2023-02-11T11:29:18.148Z,20.47
2023-02-11T11:31:52.801Z,18.83
2023-02-11T11:34:24.641Z,19.07
2023-02-11T11:36:52.729Z,19.50
2023-02-11T11:39:24.288Z,18.23
2023-02-11T11:41:57.388Z,18.93
2023-02-11T11:44:29.829Z,19.17
2023-02-11T11:47:23.341Z,18.07
2023-02-11T11:49:58.851Z,19.40
2023-02-11T11:52:36.930Z,18.60
2023-02-11T11:55:13.333Z,17.10
2023-02-11T11:57:41.814Z,17.73
2023-02-11T12:00:17.750Z,19.30
2023-02-11T12:03:40.328Z,18.37
2023-02-11T12:06:22.063Z,18.20
2023-02-11T12:08:58.060Z,18.43
2023-02-11T12:11:30.860Z,18.10
2023-02-11T12:14:08.173Z,17.97
2023-02-11T12:16:45.252Z,17.30
2023-02-11T12:19:39.798Z,16.90
2023-02-11T12:22:12.211Z,17.23
2023-02-11T12:25:01.346Z,18.00
2023-02-11T12:27:42.898Z,18.10
2023-02-11T12:30:22.807Z,17.30
2023-02-11T12:32:56.607Z,17.20
2023-02-11T12:35:33.558Z,17.40
2023-02-11T12:38:29.485Z,18.07
2023-02-11T12:41:10.166Z,18.03
2023-02-11T12:43:38.490Z,17.27
2023-02-11T12:46:39.600Z,18.10
2023-02-11T12:49:54.021Z,18.13
2023-02-11T12:52:36.827Z,18.10
2023-02-11T12:55:10.443Z,17.03
2023-02-11T12:57:38.959Z,17.03
2023-02-11T13:00:09.576Z,17.83
2023-02-11T13:02:43.364Z,17.77
2023-02-11T13:05:23.279Z,17.83
2023-02-11T13:07:54.534Z,18.87
2023-02-11T13:10:32.416Z,18.27
2023-02-11T13:13:18.604Z,17.00
2023-02-11T13:15:51.200Z,17.40
2023-02-11T13:18:38.224Z,17.90
2023-02-11T13:21:25.559Z,18.30
2023-02-11T13:23:59.794Z,17.97
2023-02-11T13:26:30.951Z,16.77
2023-02-11T13:29:07.738Z,17.47
2023-02-11T13:31:35.941Z,16.00
2023-02-11T13:34:04.715Z,16.43
2023-02-11T13:36:33.320Z,16.83
2023-02-11T13:39:05.140Z,16.40
2023-02-11T13:41:38.247Z,16.50
2023-02-11T13:44:30.583Z,16.13
2023-02-11T13:47:01.494Z,16.27
2023-02-11T13:49:36.686Z,16.53
2023-02-11T13:52:07.367Z,18.03
2023-02-11T13:54:38.806Z,17.27
2023-02-11T13:57:39.049Z,17.07
2023-02-11T14:00:50.690Z,17.03
2023-02-11T14:04:12.270Z,16.53
2023-02-11T14:06:58.306Z,15.47
2023-02-11T14:09:40.925Z,15.40
2023-02-11T14:12:36.988Z,16.03
2023-02-11T14:15:28.557Z,16.17
2023-02-11T14:17:57.056Z,16.33
2023-02-11T14:20:40.438Z,16.13
2023-02-11T14:23:08.599Z,15.43
2023-02-11T14:25:38.247Z,15.20
2023-02-11T14:28:11.224Z,15.60
2023-02-11T14:30:51.950Z,15.10
2023-02-11T14:34:05.296Z,15.20
2023-02-11T14:37:04.958Z,14.03
2023-02-11T14:39:46.847Z,14.47
2023-02-11T14:42:20.797Z,13.30
2023-02-11T14:44:49.638Z,13.10
2023-02-11T14:47:20.132Z,14.43
2023-02-11T14:49:48.344Z,13.67
2023-02-11T14:52:24.297Z,14.77
2023-02-11T14:54:52.905Z,15.20
2023-02-11T14:57:22.427Z,21.07
2023-02-11T14:59:59.386Z,26.37
2023-02-11T15:02:31.976Z,22.10
2023-02-11T15:05:17.126Z,16.97
2023-02-11T15:07:47.629Z,16.43
2023-02-11T15:10:29.900Z,18.07
2023-02-11T15:12:59.527Z,15.43
2023-02-11T15:15:27.913Z,16.00
2023-02-11T15:17:57.379Z,15.57
2023-02-11T15:20:27.626Z,15.50
2023-02-11T15:22:58.780Z,16.23
2023-02-11T15:25:27.980Z,16.57
2023-02-11T15:27:57.607Z,17.10
2023-02-11T15:30:30.870Z,14.67
2023-02-11T15:33:00.324Z,14.60
2023-02-11T15:35:30.309Z,14.83
2023-02-11T15:37:58.661Z,14.10
2023-02-11T15:40:28.903Z,14.60
2023-02-11T15:42:58.893Z,14.20
2023-02-11T15:45:31.306Z,16.70
2023-02-11T15:48:03.483Z,14.63
2023-02-11T15:50:33.428Z,13.67
2023-02-11T15:53:03.691Z,15.80
2023-02-11T15:55:31.864Z,16.40
2023-02-11T15:58:01.911Z,15.57
2023-02-11T16:00:35.596Z,16.70
2023-02-11T16:03:03.805Z,19.90
2023-02-11T16:05:33.803Z,16.10
2023-02-11T16:08:02.225Z,14.53
2023-02-11T16:10:31.718Z,16.00
2023-02-11T16:13:19.712Z,15.20
2023-02-11T16:15:53.768Z,15.90
2023-02-11T16:18:38.171Z,14.20
2023-02-11T16:21:08.525Z,14.80
2023-02-11T16:23:38.627Z,14.00
2023-02-11T16:26:11.152Z,20.10
2023-02-11T16:28:39.308Z,20.50
2023-02-11T16:31:09.727Z,17.33
2023-02-11T16:33:37.959Z,15.93
2023-02-11T16:36:12.975Z,16.50
2023-02-11T16:38:41.206Z,20.27
2023-02-11T16:41:11.805Z,20.57
2023-02-11T16:43:40.051Z,17.03
2023-02-11T16:46:09.932Z,20.10
2023-02-11T16:48:38.908Z,17.93
2023-02-11T16:51:09.216Z,18.13
2023-02-11T16:53:37.825Z,17.23
2023-02-11T16:56:06.581Z,16.07
2023-02-11T16:58:34.726Z,14.73
2023-02-11T17:01:02.891Z,14.33
2023-02-11T17:03:37.454Z,13.73
2023-02-11T17:06:07.122Z,14.60
2023-02-11T17:08:35.600Z,15.17
2023-02-11T17:11:04.063Z,15.17
2023-02-11T17:13:32.382Z,14.10
2023-02-11T17:16:00.585Z,13.53
2023-02-11T17:18:29.260Z,15.80
2023-02-11T17:20:58.851Z,15.83
2023-02-11T17:23:27.275Z,14.87
2023-02-11T17:25:58.584Z,15.40
2023-02-11T17:28:26.781Z,14.83
2023-02-11T17:30:55.081Z,14.47
2023-02-11T17:33:23.334Z,16.70
2023-02-11T17:35:51.916Z,15.13
2023-02-11T17:38:21.681Z,13.83
2023-02-11T17:40:58.851Z,15.47
2023-02-11T17:43:27.076Z,16.97
2023-02-11T17:45:55.652Z,15.67
2023-02-11T17:48:23.808Z,16.37
2023-02-11T17:50:52.234Z,22.33
2023-02-11T17:53:21.754Z,18.20
2023-02-11T17:55:50.583Z,18.50
2023-02-11T17:58:18.974Z,16.77
2023-02-11T18:00:47.194Z,15.20
2023-02-11T18:03:15.563Z,16.90
2023-02-11T18:05:43.799Z,19.80
2023-02-11T18:08:12.060Z,22.37
2023-02-11T18:10:42.212Z,19.27
2023-02-11T18:13:10.491Z,19.17
2023-02-11T18:15:38.648Z,19.53
2023-02-11T18:18:06.830Z,19.07
2023-02-11T18:20:35.054Z,21.47
2023-02-11T18:23:03.737Z,18.30
2023-02-11T18:25:31.980Z,18.93
2023-02-11T18:28:02.532Z,16.03
2023-02-11T18:30:32.000Z,14.87
2023-02-11T18:33:00.516Z,16.27
2023-02-11T18:35:28.900Z,18.23
2023-02-11T18:37:57.176Z,17.57
2023-02-11T18:40:25.352Z,15.23
2023-02-11T18:42:53.527Z,16.63
2023-02-11T18:45:23.964Z,14.93
2023-02-11T18:47:52.178Z,16.50
2023-02-11T18:50:22.102Z,16.03
2023-02-11T18:52:50.429Z,13.30
2023-02-11T18:55:23.450Z,14.73
2023-02-11T18:57:52.627Z,14.87
2023-02-11T19:00:23.469Z,13.70
2023-02-11T19:02:52.990Z,17.27
2023-02-11T19:05:21.658Z,16.50
2023-02-11T19:07:50.879Z,17.17
2023-02-11T19:10:19.482Z,15.63
2023-02-11T19:12:47.698Z,15.43
2023-02-11T19:15:15.994Z,16.70
2023-02-11T19:17:45.602Z,16.57
2023-02-11T19:20:13.787Z,15.17
2023-02-11T19:22:42.094Z,15.77
2023-02-11T19:25:11.038Z,15.67
2023-02-11T19:27:41.732Z,15.67
2023-02-11T19:30:11.194Z,15.13
2023-02-11T19:32:39.391Z,16.10
2023-02-11T19:35:09.440Z,16.57
2023-02-11T19:37:37.608Z,15.40
2023-02-11T19:40:08.771Z,15.57
2023-02-11T19:42:37.033Z,17.13
2023-02-11T19:45:07.399Z,15.80
2023-02-11T19:47:35.705Z,16.57
2023-02-11T19:50:04.657Z,15.03
2023-02-11T19:52:34.357Z,14.00
2023-02-11T19:55:02.559Z,13.57
2023-02-11T19:57:30.796Z,13.97
2023-02-11T19:59:58.909Z,17.30
2023-02-11T20:02:28.459Z,18.43
2023-02-11T20:04:56.666Z,17.43
2023-02-11T20:07:25.018Z,18.07
2023-02-11T20:09:54.548Z,19.53
2023-02-11T20:12:22.824Z,18.50
2023-02-11T20:14:51.085Z,18.33
2023-02-11T20:17:19.374Z,18.17
2023-02-11T20:19:47.595Z,19.47
2023-02-11T20:22:15.835Z,18.43
2023-02-11T20:24:44.061Z,19.07
2023-02-11T20:27:13.688Z,18.00
2023-02-11T20:29:41.932Z,17.73
2023-02-11T20:32:10.638Z,16.53
2023-02-11T20:34:39.638Z,17.20
2023-02-11T20:37:08.311Z,15.93
2023-02-11T20:39:37.292Z,16.70
2023-02-11T20:42:05.698Z,17.77
2023-02-11T20:44:36.610Z,17.60
2023-02-11T20:47:05.101Z,16.97
2023-02-11T20:49:33.658Z,15.40
2023-02-11T20:52:01.814Z,15.40
2023-02-11T20:54:30.276Z,17.43
2023-02-11T20:56:59.690Z,16.87
2023-02-11T20:59:27.911Z,15.77
2023-02-11T21:01:57.677Z,15.37
2023-02-11T21:04:27.063Z,15.47
2023-02-11T21:06:56.888Z,15.07
2023-02-11T21:09:26.531Z,15.20
2023-02-11T21:11:54.760Z,15.30
2023-02-11T21:14:23.978Z,16.10
2023-02-11T21:16:52.429Z,18.93
2023-02-11T21:19:22.020Z,22.97
2023-02-11T21:21:50.348Z,17.43
2023-02-11T21:24:18.499Z,18.17
2023-02-11T21:26:46.718Z,24.37
2023-02-11T21:29:14.897Z,23.23
2023-02-11T21:31:43.213Z,26.57
2023-02-11T21:34:11.456Z,24.63
2023-02-11T21:36:40.906Z,24.57
2023-02-11T21:39:09.140Z,28.60
2023-02-11T21:41:37.261Z,27.73
2023-02-11T21:44:05.396Z,20.53
2023-02-11T21:46:33.868Z,19.67
2023-02-11T21:49:02.160Z,20.07
2023-02-11T21:51:30.339Z,19.13
2023-02-11T21:54:01.453Z,20.73
2023-02-11T21:56:30.483Z,20.63
2023-02-11T21:58:59.584Z,20.63
2023-02-11T22:01:29.302Z,20.93
2023-02-11T22:03:58.045Z,19.40
2023-02-11T22:06:28.092Z,19.77
2023-02-11T22:08:56.353Z,18.17
2023-02-11T22:11:25.953Z,15.47
2023-02-11T22:13:55.031Z,14.67
2023-02-11T22:16:23.676Z,17.03
2023-02-11T22:18:51.952Z,17.87
2023-02-11T22:21:21.873Z,16.07
2023-02-11T22:23:50.076Z,17.03
2023-02-11T22:26:20.129Z,17.47
2023-02-11T22:28:49.796Z,17.60
2023-02-11T22:31:19.687Z,15.10
2023-02-11T22:33:48.062Z,15.07
2023-02-11T22:36:19.293Z,16.10
2023-02-11T22:38:47.903Z,14.40
2023-02-11T22:41:16.109Z,13.70
2023-02-11T22:43:44.577Z,11.47
2023-02-11T22:46:15.769Z,12.50
2023-02-11T22:48:44.087Z,12.27
2023-02-11T22:51:16.828Z,14.00
2023-02-11T22:53:45.051Z,12.73
2023-02-11T22:56:15.628Z,12.93
2023-02-11T22:58:44.260Z,11.40
2023-02-11T23:01:13.895Z,12.03
2023-02-11T23:03:42.336Z,11.90
2023-02-11T23:06:12.414Z,14.70
2023-02-11T23:08:41.145Z,14.50
2023-02-11T23:11:10.693Z,14.13
2023-02-11T23:13:40.190Z,15.07
2023-02-11T23:16:10.066Z,15.93
2023-02-11T23:18:41.023Z,14.40
2023-02-11T23:21:12.596Z,13.80
2023-02-11T23:23:41.027Z,13.17
2023-02-11T23:26:11.019Z,13.00
2023-02-11T23:28:39.588Z,13.03
2023-02-11T23:31:18.860Z,13.67
2023-02-11T23:33:48.725Z,14.23
2023-02-11T23:36:17.450Z,13.20
2023-02-11T23:38:45.735Z,11.47
2023-02-11T23:41:14.100Z,12.73
2023-02-11T23:43:42.204Z,13.53
2023-02-11T23:46:10.642Z,14.63
2023-02-11T23:48:40.426Z,14.33
2023-02-11T23:51:10.653Z,13.47
2023-02-11T23:53:39.085Z,12.77
2023-02-11T23:56:09.311Z,13.60
2023-02-11T23:58:37.664Z,12.20
